Time;durP1;ratioP1;P1;durP2;ratioP2;P2;SDS_P1;SDS_P2;PMS_P1;PMS_P2;Temp;Humidity;BMP_temperature;BMP_pressure;BME280_temperature;BME280_humidity;BME280_pressure;Samples;Min_cycle;Max_cycle;Signal;HPM_P1;HPM_P2
2024/03/16 00:01:12;;;;;;;17.95;2.72;;;11.30;99.90;;;;;;5001633;28;20527;-60
2024/03/16 00:03:38;;;;;;;14.43;3.25;;;11.20;99.90;;;;;;5008871;28;20068;-57
2024/03/16 00:06:04;;;;;;;15.20;2.55;;;11.30;99.90;;;;;;4999251;28;20547;-61
2024/03/16 00:08:29;;;;;;;20.00;3.65;;;11.30;99.90;;;;;;4976245;28;20454;-51
2024/03/16 00:10:55;;;;;;;13.23;2.88;;;11.20;99.90;;;;;;5003741;28;20100;-57
2024/03/16 00:13:21;;;;;;;21.85;4.70;;;11.20;99.90;;;;;;4984696;28;20069;-64
2024/03/16 00:15:49;;;;;;;22.85;3.88;;;11.20;99.90;;;;;;5003920;28;20057;-49
2024/03/16 00:18:15;;;;;;;18.80;3.63;;;11.20;99.90;;;;;;4987396;28;20061;-61
2024/03/16 00:20:41;;;;;;;24.50;3.78;;;11.20;99.90;;;;;;5006453;28;20412;-62
2024/03/16 00:23:07;;;;;;;20.42;3.53;;;11.20;99.90;;;;;;5005235;28;20048;-61
2024/03/16 00:25:33;;;;;;;27.58;4.32;;;11.20;99.90;;;;;;5006417;28;20085;-61
2024/03/16 00:27:59;;;;;;;18.08;3.72;;;11.20;99.90;;;;;;5005479;28;20045;-49
2024/03/16 00:30:26;;;;;;;26.13;4.18;;;11.20;99.90;;;;;;4990420;28;20041;-59
2024/03/16 00:32:52;;;;;;;28.75;5.15;;;11.20;99.90;;;;;;5000883;28;20054;-56
2024/03/16 00:35:18;;;;;;;20.80;3.35;;;11.20;99.90;;;;;;4980708;28;20053;-62
2024/03/16 00:37:44;;;;;;;26.52;3.38;;;11.20;99.90;;;;;;4987634;28;20664;-55
2024/03/16 00:40:10;;;;;;;27.67;4.30;;;11.20;99.90;;;;;;5002569;28;20054;-56
2024/03/16 00:42:35;;;;;;;20.25;3.97;;;11.20;99.90;;;;;;5002659;28;20045;-61
2024/03/16 00:45:03;;;;;;;20.25;3.95;;;11.20;99.90;;;;;;5006320;28;20515;-62
2024/03/16 00:47:29;;;;;;;23.45;3.92;;;11.10;99.90;;;;;;4983779;28;20232;-50
2024/03/16 00:49:55;;;;;;;28.15;4.50;;;11.20;99.90;;;;;;5001748;28;20105;-54
2024/03/16 00:52:20;;;;;;;15.35;3.13;;;11.10;99.90;;;;;;4984401;28;20061;-60
2024/03/16 00:54:46;;;;;;;28.52;5.60;;;11.10;99.90;;;;;;5004032;28;20085;-55
2024/03/16 00:57:12;;;;;;;23.77;4.93;;;11.10;99.90;;;;;;5000492;28;20104;-60
2024/03/16 00:59:38;;;;;;;19.02;3.72;;;11.10;99.90;;;;;;4984908;28;20057;-52
2024/03/16 01:02:04;;;;;;;21.52;4.10;;;11.10;99.90;;;;;;4953693;28;20053;-52
2024/03/16 01:04:32;;;;;;;18.33;3.63;;;11.00;99.90;;;;;;4998263;28;20089;-64
2024/03/16 01:06:59;;;;;;;24.20;4.88;;;11.00;99.90;;;;;;5001002;28;20420;-57
2024/03/16 01:09:25;;;;;;;31.70;4.28;;;11.00;99.90;;;;;;5002601;28;20704;-62
2024/03/16 01:11:52;;;;;;;18.00;3.10;;;11.00;99.90;;;;;;4982173;28;20629;-53
2024/03/16 01:14:18;;;;;;;19.98;4.07;;;10.90;99.90;;;;;;5006238;28;20049;-65
2024/03/16 01:16:44;;;;;;;24.23;4.35;;;10.90;99.90;;;;;;5002143;28;20115;-65
2024/03/16 01:19:10;;;;;;;18.48;3.58;;;10.90;99.90;;;;;;4997784;28;20427;-68
2024/03/16 01:21:36;;;;;;;20.35;3.30;;;10.90;99.90;;;;;;5008310;28;20052;-62
2024/03/16 01:24:02;;;;;;;17.63;3.65;;;10.80;99.90;;;;;;4966712;28;20530;-66
2024/03/16 01:26:28;;;;;;;20.15;3.90;;;10.80;99.90;;;;;;4970661;28;20057;-67
2024/03/16 01:28:54;;;;;;;18.77;3.97;;;10.80;99.90;;;;;;4984581;28;20562;-61
2024/03/16 01:31:20;;;;;;;17.08;3.72;;;10.70;99.90;;;;;;4967559;28;20142;-64
2024/03/16 01:33:46;;;;;;;11.80;3.22;;;10.70;99.90;;;;;;5006425;28;20428;-65
2024/03/16 01:36:14;;;;;;;12.05;3.25;;;10.70;99.90;;;;;;4966255;28;20054;-65
2024/03/16 01:38:39;;;;;;;17.25;3.75;;;10.60;99.90;;;;;;4984532;28;20412;-67
2024/03/16 01:41:05;;;;;;;8.40;2.65;;;10.60;99.90;;;;;;4967913;28;20038;-66
2024/03/16 01:43:31;;;;;;;12.48;4.13;;;10.60;99.90;;;;;;4988111;28;20082;-69
2024/03/16 01:45:57;;;;;;;15.82;3.42;;;10.60;99.90;;;;;;4982657;28;20057;-67
2024/03/16 01:48:24;;;;;;;12.48;3.65;;;10.60;99.90;;;;;;4988942;28;20057;-69
2024/03/16 01:50:53;;;;;;;10.55;3.17;;;10.60;99.90;;;;;;5000210;28;20076;-66
2024/03/16 01:53:19;;;;;;;11.15;2.92;;;10.50;99.90;;;;;;5000346;28;20069;-67
2024/03/16 01:55:45;;;;;;;9.55;2.33;;;10.50;99.90;;;;;;5001881;28;20113;-65
2024/03/16 01:58:12;;;;;;;10.57;2.63;;;10.50;99.90;;;;;;5001718;28;20137;-65
2024/03/16 02:00:38;;;;;;;7.53;2.55;;;10.50;99.90;;;;;;5002987;28;20049;-66
2024/03/16 02:03:05;;;;;;;29.98;5.65;;;10.50;99.90;;;;;;4987167;28;20060;-65
2024/03/16 02:05:31;;;;;;;31.77;5.30;;;10.40;99.90;;;;;;4980485;28;20057;-67
2024/03/16 02:07:59;;;;;;;27.42;5.32;;;10.40;99.90;;;;;;4991037;28;20053;-62
2024/03/16 02:10:24;;;;;;;29.40;6.43;;;10.30;99.90;;;;;;5006552;28;20133;-65
2024/03/16 02:12:50;;;;;;;16.08;4.72;;;10.30;99.90;;;;;;4988127;28;20043;-61
2024/03/16 02:15:16;;;;;;;20.00;4.55;;;10.20;99.90;;;;;;4983676;28;20081;-68
2024/03/16 02:17:41;;;;;;;7.35;1.98;;;10.10;99.90;;;;;;4970092;28;20045;-68
2024/03/16 02:20:15;;;;;;;5.05;1.63;;;9.70;99.90;;;;;;4992441;28;20117;-61
2024/03/16 02:22:44;;;;;;;9.75;1.70;;;9.50;99.90;;;;;;4995146;28;20060;-67
2024/03/16 02:25:10;;;;;;;4.43;0.75;;;9.40;99.90;;;;;;4985285;28;20056;-66
2024/03/16 02:27:37;;;;;;;1.50;0.70;;;9.10;99.90;;;;;;4980383;28;20145;-65
2024/03/16 02:30:04;;;;;;;2.08;0.70;;;8.90;99.90;;;;;;5012715;28;20146;-66
2024/03/16 02:32:30;;;;;;;1.67;0.60;;;8.80;99.90;;;;;;4999821;28;20101;-66
2024/03/16 02:34:55;;;;;;;3.53;0.57;;;8.80;99.90;;;;;;5014251;28;20424;-68
2024/03/16 02:37:21;;;;;;;5.13;0.85;;;8.60;99.90;;;;;;4981764;28;20452;-64
2024/03/16 02:39:47;;;;;;;2.15;0.60;;;8.60;99.90;;;;;;5000385;28;20137;-67
2024/03/16 02:42:13;;;;;;;3.60;0.70;;;8.60;99.90;;;;;;4965467;28;20073;-56
2024/03/16 02:44:40;;;;;;;4.30;0.88;;;8.60;99.90;;;;;;5002825;28;20145;-56
2024/03/16 02:47:06;;;;;;;7.40;1.27;;;8.50;99.90;;;;;;4988656;28;20527;-63
2024/03/16 02:49:32;;;;;;;4.82;0.98;;;8.50;99.90;;;;;;5004745;28;20050;-65
2024/03/16 02:51:58;;;;;;;1.80;0.82;;;8.50;99.90;;;;;;5003610;28;20512;-68
2024/03/16 02:54:23;;;;;;;4.30;1.05;;;8.40;99.90;;;;;;4992665;28;20508;-61
2024/03/16 02:56:51;;;;;;;3.85;0.82;;;8.40;99.90;;;;;;4984408;28;20128;-63
2024/03/16 02:59:17;;;;;;;4.63;1.00;;;8.40;99.90;;;;;;4966812;28;20065;-67
2024/03/16 03:01:43;;;;;;;2.50;0.82;;;8.30;99.90;;;;;;5002110;28;20054;-66
2024/03/16 03:04:09;;;;;;;4.10;1.20;;;8.40;99.90;;;;;;5006455;28;20747;-66
2024/03/16 03:06:34;;;;;;;6.47;1.77;;;8.30;99.90;;;;;;4997316;28;20042;-67
2024/03/16 03:09:00;;;;;;;6.63;1.20;;;8.30;99.90;;;;;;4988429;28;20058;-68
2024/03/16 03:11:26;;;;;;;4.20;1.17;;;8.30;99.90;;;;;;4995162;28;20547;-62
2024/03/16 03:13:52;;;;;;;3.47;1.13;;;8.30;99.90;;;;;;4988526;28;20436;-60
2024/03/16 03:16:20;;;;;;;1.98;0.70;;;8.30;99.90;;;;;;4977603;28;20046;-55
2024/03/16 03:18:50;;;;;;;5.50;1.25;;;8.30;99.90;;;;;;5003239;28;20079;-62
2024/03/16 03:21:17;;;;;;;3.75;1.35;;;8.20;99.90;;;;;;4983562;28;20042;-57
2024/03/16 03:23:43;;;;;;;9.40;1.63;;;8.20;99.90;;;;;;4981869;28;20103;-65
2024/03/16 03:26:09;;;;;;;8.75;2.20;;;8.20;99.90;;;;;;4985917;28;20050;-59
2024/03/16 03:28:36;;;;;;;7.63;1.90;;;8.20;99.90;;;;;;5008426;28;20483;-62
2024/03/16 03:31:08;;;;;;;8.35;2.03;;;8.20;99.90;;;;;;4976935;28;20050;-66
2024/03/16 03:33:33;;;;;;;7.45;1.85;;;8.10;99.90;;;;;;4986878;28;20056;-62
2024/03/16 03:36:02;;;;;;;2.90;0.88;;;8.10;99.90;;;;;;5009593;28;20049;-64
2024/03/16 03:38:28;;;;;;;6.80;1.63;;;8.10;99.90;;;;;;5000027;28;20598;-61
2024/03/16 03:40:54;;;;;;;8.38;1.25;;;8.10;99.90;;;;;;4986002;28;20435;-61
2024/03/16 03:43:22;;;;;;;5.45;1.70;;;8.00;99.90;;;;;;5005621;28;20108;-67
2024/03/16 03:45:50;;;;;;;6.50;1.83;;;8.00;99.90;;;;;;5001902;28;20042;-63
2024/03/16 03:48:25;;;;;;;3.35;1.30;;;7.90;99.90;;;;;;5007100;28;20069;-64
2024/03/16 03:50:56;;;;;;;12.82;3.63;;;7.90;99.90;;;;;;4984971;28;20142;-55
2024/03/16 03:53:25;;;;;;;13.88;2.00;;;7.90;99.90;;;;;;5003064;28;20058;-57
2024/03/16 03:55:51;;;;;;;9.68;1.75;;;7.90;99.90;;;;;;4981219;28;20046;-64
2024/03/16 03:58:19;;;;;;;8.60;1.70;;;7.90;99.90;;;;;;5002342;28;20067;-55
2024/03/16 04:00:47;;;;;;;6.47;1.05;;;7.80;99.90;;;;;;4970046;28;20161;-61
2024/03/16 04:03:13;;;;;;;10.00;1.50;;;7.80;99.90;;;;;;5006653;28;20067;-64
2024/03/16 04:05:39;;;;;;;6.82;1.10;;;7.70;99.90;;;;;;5003158;28;20060;-54
2024/03/16 04:08:05;;;;;;;5.97;1.08;;;7.80;99.90;;;;;;5002628;28;20068;-58
2024/03/16 04:10:32;;;;;;;5.70;1.40;;;7.70;99.90;;;;;;4986883;28;20133;-63
2024/03/16 04:12:59;;;;;;;3.72;0.95;;;7.70;99.90;;;;;;5008174;28;20038;-64
2024/03/16 04:15:25;;;;;;;6.90;0.88;;;7.70;99.90;;;;;;4993103;28;20038;-62
2024/03/16 04:17:50;;;;;;;3.72;1.20;;;7.60;99.90;;;;;;4993184;28;20038;-63
2024/03/16 04:20:20;;;;;;;5.55;1.20;;;7.70;99.90;;;;;;5001916;28;20088;-64
2024/03/16 04:22:46;;;;;;;8.90;1.57;;;7.60;99.90;;;;;;5005324;28;20053;-65
2024/03/16 04:25:12;;;;;;;14.40;2.17;;;7.50;99.90;;;;;;5009894;28;20069;-60
2024/03/16 04:27:39;;;;;;;11.05;1.85;;;7.40;99.90;;;;;;5002670;28;20625;-56
2024/03/16 04:30:06;;;;;;;8.23;1.48;;;7.30;99.90;;;;;;4984185;28;20041;-61
2024/03/16 04:32:32;;;;;;;11.48;2.33;;;7.20;99.90;;;;;;4993172;28;20171;-65
2024/03/16 04:34:59;;;;;;;13.48;2.25;;;7.20;99.90;;;;;;5010880;28;20065;-60
2024/03/16 04:37:24;;;;;;;15.10;2.47;;;7.20;99.90;;;;;;5010865;28;20054;-65
2024/03/16 04:39:50;;;;;;;13.90;1.85;;;7.20;99.90;;;;;;5006141;28;20048;-63
2024/03/16 04:42:16;;;;;;;13.35;2.38;;;7.20;99.90;;;;;;5000266;28;20605;-65
2024/03/16 04:44:42;;;;;;;17.40;2.20;;;7.30;99.90;;;;;;4985355;28;20111;-63
2024/03/16 04:47:08;;;;;;;20.15;2.47;;;7.30;99.90;;;;;;5015312;28;20195;-63
2024/03/16 04:49:34;;;;;;;23.58;2.35;;;7.30;99.90;;;;;;5016003;28;20120;-63
2024/03/16 04:52:00;;;;;;;11.85;1.58;;;7.20;99.90;;;;;;4986679;28;20141;-57
2024/03/16 04:54:26;;;;;;;15.70;2.03;;;7.30;99.90;;;;;;4984106;28;20045;-58
2024/03/16 04:56:51;;;;;;;20.02;2.97;;;7.20;99.90;;;;;;5014747;28;20054;-62
2024/03/16 04:59:17;;;;;;;12.93;2.15;;;7.20;99.90;;;;;;4994490;28;20132;-65
2024/03/16 05:01:43;;;;;;;23.02;2.50;;;7.10;99.90;;;;;;5005132;28;20500;-65
2024/03/16 05:04:08;;;;;;;21.25;2.20;;;7.10;99.90;;;;;;4991587;28;20049;-67
2024/03/16 05:06:34;;;;;;;11.65;1.90;;;7.00;99.90;;;;;;5010048;28;20053;-66
2024/03/16 05:09:05;;;;;;;18.73;1.63;;;6.80;99.90;;;;;;5001872;28;20056;-60
2024/03/16 05:11:35;;;;;;;10.02;2.42;;;6.70;99.90;;;;;;5000636;28;20125;-58
2024/03/16 05:14:05;;;;;;;;;;;6.70;99.90;;;;;;5009508;28;20377;-56
2024/03/16 05:16:33;;;;;;;6.53;1.30;;;6.70;99.90;;;;;;4982414;28;19948;-61
2024/03/16 05:19:06;;;;;;;8.82;1.50;;;6.70;99.90;;;;;;5006238;28;20073;-61
2024/03/16 05:21:32;;;;;;;8.50;1.45;;;6.60;99.90;;;;;;4997981;28;20052;-56
2024/03/16 05:24:02;;;;;;;11.50;1.98;;;6.60;99.90;;;;;;4996326;28;20057;-59
2024/03/16 05:26:30;;;;;;;6.35;0.98;;;6.70;99.90;;;;;;5000076;28;20100;-61
2024/03/16 05:28:56;;;;;;;7.18;1.10;;;6.80;99.90;;;;;;4991673;28;20104;-60
2024/03/16 05:31:22;;;;;;;9.13;1.38;;;6.80;99.90;;;;;;5009472;28;20042;-62
2024/03/16 05:33:50;;;;;;;7.22;1.20;;;6.80;99.90;;;;;;5000611;28;20069;-54
2024/03/16 05:36:16;;;;;;;14.80;1.63;;;6.80;99.90;;;;;;5005077;28;20143;-67
2024/03/16 05:38:48;;;;;;;13.07;1.55;;;6.80;99.90;;;;;;4990088;28;20042;-59
2024/03/16 05:41:14;;;;;;;12.48;1.23;;;6.80;99.90;;;;;;5008543;28;20034;-56
2024/03/16 05:43:43;;;;;;;9.48;1.73;;;6.90;99.90;;;;;;4980961;28;20052;-55
2024/03/16 05:46:08;;;;;;;11.35;1.67;;;6.90;99.90;;;;;;4977364;28;20053;-59
2024/03/16 05:48:34;;;;;;;13.93;2.10;;;6.90;99.90;;;;;;4982975;28;20454;-54
2024/03/16 05:51:01;;;;;;;9.43;1.30;;;7.00;99.90;;;;;;4969432;28;20104;-55
2024/03/16 05:53:27;;;;;;;16.00;2.20;;;7.00;99.90;;;;;;4983541;28;20495;-58
2024/03/16 05:55:53;;;;;;;13.75;1.85;;;7.00;99.90;;;;;;4999916;28;20133;-60
2024/03/16 05:58:22;;;;;;;10.40;1.70;;;7.00;99.90;;;;;;4984345;28;20456;-64
2024/03/16 06:00:48;;;;;;;20.23;1.92;;;7.00;99.90;;;;;;5000809;28;20522;-57
2024/03/16 06:03:14;;;;;;;12.35;1.70;;;7.00;99.90;;;;;;5000816;28;20375;-60
2024/03/16 06:05:47;;;;;;;9.13;1.90;;;7.00;99.90;;;;;;5002127;28;20808;-55
2024/03/16 06:08:14;;;;;;;17.27;1.58;;;7.00;99.90;;;;;;4979624;28;20088;-63
2024/03/16 06:10:40;;;;;;;6.90;1.85;;;7.10;99.90;;;;;;5001970;28;20053;-60
2024/03/16 06:13:06;;;;;;;13.93;2.17;;;7.10;99.90;;;;;;5001435;28;20054;-56
2024/03/16 06:15:33;;;;;;;15.10;2.38;;;7.10;99.90;;;;;;4945201;28;20054;-64
2024/03/16 06:17:59;;;;;;;9.52;1.77;;;7.10;99.90;;;;;;5000759;28;20481;-63
2024/03/16 06:20:25;;;;;;;10.38;2.28;;;7.10;99.90;;;;;;5001796;28;20084;-60
2024/03/16 06:22:50;;;;;;;14.02;2.22;;;7.10;99.90;;;;;;5008477;28;20057;-59
2024/03/16 06:25:17;;;;;;;9.73;1.42;;;7.00;99.90;;;;;;5010188;28;20081;-64
2024/03/16 06:27:54;;;;;;;8.95;1.30;;;7.00;99.90;;;;;;5000825;28;20129;-62
2024/03/16 06:30:27;;;;;;;5.05;1.65;;;7.10;99.90;;;;;;5001909;28;20053;-65
2024/03/16 06:33:08;;;;;;;5.95;1.10;;;7.00;99.90;;;;;;5003801;28;20120;-59
2024/03/16 06:35:41;;;;;;;7.13;1.13;;;7.00;99.90;;;;;;4991956;28;20042;-64
2024/03/16 06:38:07;;;;;;;4.70;1.30;;;7.00;99.90;;;;;;4997470;28;20109;-63
2024/03/16 06:40:33;;;;;;;8.07;0.90;;;7.00;99.90;;;;;;4990259;28;20229;-64
2024/03/16 06:43:05;;;;;;;8.60;0.93;;;7.00;99.90;;;;;;4990240;28;20246;-55
2024/03/16 06:45:31;;;;;;;6.65;1.15;;;7.00;99.90;;;;;;4951258;28;20081;-65
2024/03/16 06:47:57;;;;;;;4.25;1.10;;;7.10;99.90;;;;;;4997048;28;20460;-60
2024/03/16 06:50:22;;;;;;;7.40;1.02;;;7.10;1.00;;;;;;5011211;28;20046;-60
2024/03/16 06:52:48;;;;;;;6.60;1.10;;;7.10;1.00;;;;;;4982623;28;20050;-60
2024/03/16 06:55:17;;;;;;;8.85;1.13;;;7.10;1.00;;;;;;5006353;28;20042;-65
2024/03/16 06:57:43;;;;;;;12.00;1.58;;;7.10;1.00;;;;;;4992462;28;20488;-65
2024/03/16 07:00:09;;;;;;;4.93;1.15;;;7.20;1.00;;;;;;4983851;28;20428;-63
2024/03/16 07:02:35;;;;;;;6.15;1.10;;;7.20;1.00;;;;;;5004233;28;20045;-63
2024/03/16 07:05:01;;;;;;;4.03;1.02;;;7.20;1.00;;;;;;5009746;28;20049;-60
2024/03/16 07:07:28;;;;;;;8.68;1.25;;;7.20;20.90;;;;;;4984245;28;20456;-62
2024/03/16 07:09:54;;;;;;;9.40;1.73;;;7.20;2.80;;;;;;5010089;28;20052;-62
2024/03/16 07:12:21;;;;;;;8.93;1.42;;;7.30;24.50;;;;;;5003908;28;20041;-64
2024/03/16 07:14:47;;;;;;;9.43;1.20;;;7.30;14.20;;;;;;4985719;28;20107;-61
2024/03/16 07:17:13;;;;;;;7.45;1.42;;;7.30;28.50;;;;;;5009360;28;20510;-64
2024/03/16 07:19:38;;;;;;;8.80;1.90;;;7.30;1.00;;;;;;4991978;28;20076;-64
2024/03/16 07:22:04;;;;;;;4.15;0.82;;;7.40;1.00;;;;;;4995646;28;20060;-65
2024/03/16 07:24:30;;;;;;;4.70;1.05;;;7.40;1.00;;;;;;4991224;28;20062;-64
2024/03/16 07:26:55;;;;;;;9.00;1.20;;;7.40;1.00;;;;;;5000669;28;20077;-54
2024/03/16 07:29:21;;;;;;;5.63;0.90;;;7.40;1.00;;;;;;4982919;28;20046;-62
2024/03/16 07:31:49;;;;;;;7.07;1.25;;;7.50;1.00;;;;;;5002268;28;20042;-51
2024/03/16 07:34:15;;;;;;;4.97;0.88;;;7.60;1.00;;;;;;5006996;28;20042;-61
2024/03/16 07:36:41;;;;;;;5.68;0.98;;;7.60;1.00;;;;;;5001383;28;20467;-60
2024/03/16 07:39:08;;;;;;;7.32;1.50;;;7.60;1.00;;;;;;5003026;28;20118;-56
2024/03/16 07:41:37;;;;;;;3.40;1.00;;;7.60;1.00;;;;;;4986232;28;20042;-63
2024/03/16 07:44:03;;;;;;;9.02;0.90;;;7.60;1.00;;;;;;5002154;28;20053;-58
2024/03/16 07:46:29;;;;;;;4.97;0.95;;;7.60;1.00;;;;;;5008136;28;20056;-56
2024/03/16 07:48:59;;;;;;;4.30;0.68;;;7.60;99.90;;;;;;4969982;28;20104;-57
2024/03/16 07:51:28;;;;;;;7.70;0.93;;;7.70;99.90;;;;;;5010996;28;20089;-65
2024/03/16 07:53:55;;;;;;;5.28;1.02;;;7.60;99.90;;;;;;4984637;28;20528;-55
2024/03/16 07:56:21;;;;;;;4.85;0.90;;;7.70;99.90;;;;;;5013992;28;20048;-58
2024/03/16 07:58:47;;;;;;;6.93;0.70;;;7.70;99.90;;;;;;5006167;28;20053;-64
2024/03/16 08:01:13;;;;;;;7.85;2.00;;;7.70;99.90;;;;;;5009591;28;20859;-56
2024/03/16 08:03:42;;;;;;;4.15;1.35;;;7.70;99.90;;;;;;5002461;28;20523;-61
2024/03/16 08:06:08;;;;;;;7.88;1.20;;;7.80;99.90;;;;;;4988070;28;20037;-62
2024/03/16 08:08:34;;;;;;;7.85;1.90;;;7.80;99.90;;;;;;5005094;28;20499;-66
2024/03/16 08:11:00;;;;;;;11.77;4.20;;;7.80;99.90;;;;;;5015166;28;20423;-63
2024/03/16 08:13:26;;;;;;;8.30;2.47;;;7.90;99.90;;;;;;5004874;28;20049;-56
2024/03/16 08:15:52;;;;;;;9.13;1.70;;;7.90;1.00;;;;;;4987229;28;20058;-62
2024/03/16 08:18:18;;;;;;;8.82;2.78;;;8.00;1.00;;;;;;5001475;28;20561;-63
2024/03/16 08:20:44;;;;;;;13.52;3.40;;;8.00;1.00;;;;;;5001682;28;20164;-54
2024/03/16 08:23:10;;;;;;;10.70;2.13;;;8.00;1.00;;;;;;4998435;28;20171;-61
2024/03/16 08:25:35;;;;;;;17.92;2.83;;;8.00;1.00;;;;;;4985216;28;20111;-58
2024/03/16 08:28:01;;;;;;;10.10;1.42;;;8.00;1.00;;;;;;4999441;28;20038;-63
2024/03/16 08:30:27;;;;;;;11.05;1.63;;;8.00;1.00;;;;;;4998872;28;20474;-60
2024/03/16 08:32:53;;;;;;;11.23;1.50;;;8.10;1.00;;;;;;5001996;28;20635;-54
2024/03/16 08:35:19;;;;;;;12.27;1.60;;;8.00;1.00;;;;;;5007397;28;20384;-57
2024/03/16 08:37:45;;;;;;;8.23;1.38;;;8.10;1.00;;;;;;5004089;28;20060;-58
2024/03/16 08:40:15;;;;;;;6.80;1.20;;;8.10;1.00;;;;;;4987118;28;20045;-57
2024/03/16 08:42:41;;;;;;;11.82;1.48;;;8.10;1.00;;;;;;4998598;28;20052;-63
2024/03/16 08:45:07;;;;;;;8.60;1.50;;;8.10;99.90;;;;;;4984119;28;20042;-60
2024/03/16 08:47:36;;;;;;;8.80;1.10;;;8.00;99.90;;;;;;5001637;28;20045;-57
2024/03/16 08:50:04;;;;;;;4.88;0.90;;;8.00;99.90;;;;;;5000761;28;20053;-54
2024/03/16 08:52:30;;;;;;;5.43;1.30;;;8.00;99.90;;;;;;5004438;28;20125;-58
2024/03/16 08:54:56;;;;;;;6.15;1.30;;;8.00;99.90;;;;;;4968058;28;20080;-55
2024/03/16 08:57:22;;;;;;;5.90;2.05;;;8.10;99.90;;;;;;5001195;28;20608;-54
2024/03/16 08:59:48;;;;;;;5.57;1.10;;;8.10;99.90;;;;;;4981936;28;20058;-61
2024/03/16 09:02:14;;;;;;;9.30;1.40;;;8.20;99.90;;;;;;4983515;28;20100;-49
2024/03/16 09:04:40;;;;;;;6.90;1.30;;;8.30;99.90;;;;;;5002451;28;20041;-60
2024/03/16 09:07:06;;;;;;;6.32;1.50;;;8.40;99.90;;;;;;5001408;28;20042;-58
2024/03/16 09:09:32;;;;;;;18.08;2.17;;;8.60;99.90;;;;;;5002299;28;20046;-60
2024/03/16 09:11:58;;;;;;;10.57;1.85;;;8.70;1.00;;;;;;5003729;28;20435;-57
2024/03/16 09:14:24;;;;;;;4.22;1.02;;;8.90;1.00;;;;;;4999340;28;20045;-61
2024/03/16 09:16:49;;;;;;;8.95;1.13;;;9.00;99.90;;;;;;5003737;28;20080;-65
2024/03/16 09:19:16;;;;;;;7.15;0.80;;;9.20;99.90;;;;;;4998260;28;20152;-57
2024/03/16 09:21:42;;;;;;;13.82;1.20;;;9.20;99.90;;;;;;5009747;28;20057;-59
2024/03/16 09:24:08;;;;;;;8.98;1.35;;;9.10;99.90;;;;;;5000630;28;20042;-66
2024/03/16 09:26:34;;;;;;;6.15;0.93;;;9.10;99.90;;;;;;4986711;28;20050;-61
2024/03/16 09:29:00;;;;;;;11.40;1.15;;;9.00;99.90;;;;;;5011620;28;20514;-62
2024/03/16 09:31:26;;;;;;;4.65;1.20;;;9.00;99.90;;;;;;4998526;28;20525;-53
2024/03/16 09:33:52;;;;;;;13.02;3.60;;;9.00;99.90;;;;;;5009847;28;20511;-66
2024/03/16 09:36:18;;;;;;;6.00;2.10;;;9.00;99.90;;;;;;5009921;28;20523;-54
2024/03/16 09:38:43;;;;;;;10.07;3.53;;;8.90;99.90;;;;;;4986640;28;20100;-61
2024/03/16 09:41:18;;;;;;;5.85;1.60;;;8.80;99.90;;;;;;4995034;28;20042;-62
2024/03/16 09:43:45;;;;;;;11.32;2.83;;;8.80;99.90;;;;;;4981108;28;20263;-59
2024/03/16 09:46:10;;;;;;;15.27;3.97;;;8.80;99.90;;;;;;4997188;28;20087;-55
2024/03/16 09:48:37;;;;;;;8.82;2.47;;;8.90;99.90;;;;;;4981376;28;20034;-55
2024/03/16 09:51:04;;;;;;;6.88;2.45;;;9.00;99.90;;;;;;4986715;28;20107;-59
2024/03/16 09:53:32;;;;;;;9.52;2.38;;;9.10;99.90;;;;;;5001034;28;20504;-57
2024/03/16 09:56:00;;;;;;;8.80;3.60;;;9.10;99.90;;;;;;4999909;28;20129;-66
2024/03/16 09:58:28;;;;;;;9.65;1.95;;;9.40;99.90;;;;;;4995330;28;20057;-58
2024/03/16 10:00:54;;;;;;;11.93;1.48;;;9.70;99.90;;;;;;4999682;28;20103;-57
2024/03/16 10:03:21;;;;;;;12.23;2.60;;;9.80;99.90;;;;;;5002393;28;20519;-63
2024/03/16 10:05:47;;;;;;;18.20;3.72;;;9.50;99.90;;;;;;4998789;28;20522;-57
2024/03/16 10:08:20;;;;;;;13.18;2.72;;;9.30;99.90;;;;;;4998976;28;20045;-60
2024/03/16 10:10:47;;;;;;;9.40;1.83;;;9.20;99.90;;;;;;4971204;28;20765;-60
2024/03/16 10:13:14;;;;;;;5.88;1.17;;;9.30;99.90;;;;;;4992075;28;20077;-63
2024/03/16 10:15:42;;;;;;;9.98;1.55;;;9.40;99.90;;;;;;5003848;28;20041;-62
2024/03/16 10:18:14;;;;;;;6.35;1.65;;;9.60;99.90;;;;;;4998432;28;20042;-51
2024/03/16 10:20:40;;;;;;;9.35;1.70;;;9.80;99.90;;;;;;4983016;28;20378;-53
2024/03/16 10:23:15;;;;;;;3.92;1.15;;;9.80;99.90;;;;;;4997743;28;20560;-53
2024/03/16 10:25:47;;;;;;;4.15;0.95;;;9.80;99.90;;;;;;4999923;28;20038;-60
2024/03/16 10:28:16;;;;;;;10.98;1.48;;;10.00;99.90;;;;;;4993536;28;20454;-54
2024/03/16 10:30:45;;;;;;;11.35;1.45;;;10.00;99.90;;;;;;5007817;28;20120;-55
2024/03/16 10:33:12;;;;;;;8.90;1.33;;;10.00;99.90;;;;;;4982296;28;20084;-58
2024/03/16 10:35:41;;;;;;;9.80;1.17;;;9.90;99.90;;;;;;5003560;28;20325;-54
2024/03/16 10:38:19;;;;;;;6.75;1.48;;;9.90;99.90;;;;;;5009669;28;20116;-65
2024/03/16 10:40:46;;;;;;;11.80;1.98;;;9.80;99.90;;;;;;5009474;28;20132;-61
2024/03/16 10:43:13;;;;;;;5.40;1.10;;;9.60;99.90;;;;;;5004257;28;20504;-61
2024/03/16 10:45:45;;;;;;;7.93;1.67;;;9.50;99.90;;;;;;5004470;28;20045;-60
2024/03/16 10:48:13;;;;;;;13.07;1.80;;;9.50;99.90;;;;;;4985279;28;20415;-61
2024/03/16 10:50:48;;;;;;;9.88;1.60;;;9.50;99.90;;;;;;4985201;28;20492;-66
2024/03/16 10:53:16;;;;;;;9.23;1.85;;;9.60;99.90;;;;;;5005197;28;20557;-61
2024/03/16 10:55:44;;;;;;;10.23;1.90;;;9.60;99.90;;;;;;4987423;28;20053;-59
2024/03/16 10:58:25;;;;;;;11.25;1.67;;;9.60;99.90;;;;;;4998646;28;20054;-58
2024/03/16 11:01:01;;;;;;;15.30;2.45;;;9.60;99.90;;;;;;4975250;28;20054;-52
2024/03/16 11:03:29;;;;;;;9.18;1.55;;;9.40;99.90;;;;;;4985104;28;20042;-62
2024/03/16 11:06:10;;;;;;;9.13;1.60;;;9.30;99.90;;;;;;5003927;28;20053;-60
2024/03/16 11:08:48;;;;;;;11.95;1.58;;;9.60;99.90;;;;;;5007300;28;20057;-59
2024/03/16 11:11:28;;;;;;;5.60;1.55;;;9.80;99.90;;;;;;4998006;28;20486;-59
2024/03/16 11:13:58;;;;;;;11.73;1.88;;;9.90;99.90;;;;;;5009121;28;20065;-55
2024/03/16 11:16:33;;;;;;;9.25;1.65;;;9.70;99.90;;;;;;5003921;28;20107;-55
2024/03/16 11:19:07;;;;;;;10.18;1.77;;;9.50;99.90;;;;;;4986936;28;20044;-64
2024/03/16 11:21:39;;;;;;;12.40;1.77;;;9.30;99.90;;;;;;5001763;28;20038;-53
2024/03/16 11:24:15;;;;;;;10.57;1.38;;;9.30;99.90;;;;;;4999621;28;20050;-56
2024/03/16 11:26:43;;;;;;;9.02;1.75;;;9.50;1.00;;;;;;4986865;28;20046;-61
2024/03/16 11:29:21;;;;;;;10.00;2.25;;;9.70;99.90;;;;;;5009805;28;20037;-54
2024/03/16 11:31:48;;;;;;;9.65;1.55;;;9.80;99.90;;;;;;4982865;28;20050;-62
2024/03/16 11:34:19;;;;;;;16.85;1.60;;;9.80;99.90;;;;;;4990120;28;20095;-57
2024/03/16 11:36:56;;;;;;;7.35;1.63;;;10.00;1.00;;;;;;4988586;28;20173;-54
2024/03/16 11:39:24;;;;;;;5.05;1.30;;;10.20;1.00;;;;;;4984244;28;20516;-56
2024/03/16 11:41:53;;;;;;;9.88;1.75;;;10.60;1.00;;;;;;4996942;28;20046;-56
2024/03/16 11:44:20;;;;;;;11.65;2.20;;;10.80;1.00;;;;;;4999418;28;20402;-60
2024/03/16 11:46:47;;;;;;;10.18;1.70;;;11.10;1.00;;;;;;4982608;28;20049;-57
2024/03/16 11:49:17;;;;;;;18.33;2.47;;;11.10;99.90;;;;;;4997674;28;20299;-63
2024/03/16 11:51:47;;;;;;;15.00;2.30;;;11.20;99.90;;;;;;5000581;28;20045;-62
2024/03/16 11:54:14;;;;;;;;;;;11.00;1.00;;;;;;5001041;28;20050;-59
2024/03/16 11:56:41;;;;;;;5.82;1.25;;;10.90;99.90;;;;;;5011395;28;20407;-62
2024/03/16 11:59:18;;;;;;;10.90;1.70;;;10.80;99.90;;;;;;5005386;28;20700;-59
2024/03/16 12:01:49;;;;;;;10.57;2.00;;;10.50;99.90;;;;;;5003738;28;20046;-59
2024/03/16 12:04:17;;;;;;;6.15;1.38;;;10.40;99.90;;;;;;4986595;28;20054;-61
2024/03/16 12:06:45;;;;;;;10.13;1.90;;;10.40;99.90;;;;;;5002633;28;20417;-60
2024/03/16 12:09:15;;;;;;;11.45;1.70;;;10.50;99.90;;;;;;5003201;28;20434;-61
2024/03/16 12:11:50;;;;;;;9.65;1.67;;;10.60;99.90;;;;;;5004354;28;20049;-58
2024/03/16 12:14:18;;;;;;;15.10;1.98;;;10.60;99.90;;;;;;4983469;28;20049;-55
2024/03/16 12:16:47;;;;;;;13.77;1.95;;;10.60;99.90;;;;;;5002898;28;20046;-59
2024/03/16 12:19:16;;;;;;;14.07;2.10;;;10.80;99.90;;;;;;5002270;28;20049;-61
2024/03/16 12:21:43;;;;;;;14.43;2.28;;;11.10;99.90;;;;;;5001273;28;20128;-61
2024/03/16 12:24:17;;;;;;;15.30;2.22;;;11.30;99.90;;;;;;4981840;28;20053;-58
2024/03/16 12:26:49;;;;;;;16.55;2.30;;;11.20;99.90;;;;;;5003191;28;20396;-53
2024/03/16 12:29:18;;;;;;;10.18;1.95;;;10.80;88.70;;;;;;5003902;28;20460;-65
2024/03/16 12:31:45;;;;;;;7.25;1.20;;;10.60;96.60;;;;;;4996445;28;20069;-62
2024/03/16 12:34:14;;;;;;;16.92;2.53;;;10.50;66.70;;;;;;4999665;28;20041;-65
2024/03/16 12:36:41;;;;;;;16.63;2.73;;;10.70;99.90;;;;;;5000142;28;20385;-62
2024/03/16 12:39:11;;;;;;;14.00;3.15;;;10.50;99.90;;;;;;5001582;28;20285;-58
2024/03/16 12:41:49;;;;;;;12.90;2.08;;;10.60;99.90;;;;;;5000227;28;20528;-58
2024/03/16 12:44:16;;;;;;;8.57;1.60;;;10.70;99.90;;;;;;4999067;28;20049;-55
2024/03/16 12:46:42;;;;;;;5.93;1.48;;;10.50;70.50;;;;;;5005545;28;20045;-63
2024/03/16 12:49:08;;;;;;;12.40;2.70;;;10.30;1.00;;;;;;5011360;28;20045;-56
2024/03/16 12:51:35;;;;;;;12.65;1.83;;;10.40;29.60;;;;;;4999022;28;20377;-59